Time;durP1;ratioP1;P1;durP2;ratioP2;P2;SDS_P1;SDS_P2;PMS_P1;PMS_P2;Temp;Humidity;BMP_temperature;BMP_pressure;BME280_temperature;BME280_humidity;BME280_pressure;Samples;Min_cycle;Max_cycle;Signal;HPM_P1;HPM_P2
2023/08/22 04:09:13;;;;;;;4.60;4.20;;;21.20;99.90;;;;;;4998397;28;20433;-67
2023/08/22 04:11:43;;;;;;;4.17;3.80;;;21.20;99.90;;;;;;5000063;28;20399;-67
2023/08/22 04:14:09;;;;;;;5.03;4.50;;;21.20;99.90;;;;;;4999948;28;20214;-67
2023/08/22 04:16:34;;;;;;;3.80;3.50;;;21.20;99.90;;;;;;4980556;28;20416;-66
2023/08/22 04:19:00;;;;;;;4.63;3.93;;;21.20;99.90;;;;;;4980642;28;20180;-66
2023/08/22 04:21:26;;;;;;;4.60;4.10;;;21.20;99.90;;;;;;4974056;28;20250;-67
2023/08/22 04:23:51;;;;;;;4.13;3.73;;;21.20;99.90;;;;;;4980389;28;20172;-67
2023/08/22 04:26:17;;;;;;;4.37;3.40;;;21.10;99.90;;;;;;4980696;28;20224;-67
2023/08/22 04:28:42;;;;;;;4.30;3.90;;;21.10;99.90;;;;;;4980580;28;20250;-67
2023/08/22 04:31:08;;;;;;;3.87;3.60;;;21.10;99.90;;;;;;4980551;28;20180;-67
2023/08/22 04:33:34;;;;;;;4.93;4.43;;;21.10;99.90;;;;;;4979649;28;20161;-68
2023/08/22 04:35:59;;;;;;;3.70;3.40;;;21.10;99.90;;;;;;4978590;28;20199;-68
2023/08/22 04:38:25;;;;;;;3.07;2.87;;;21.10;99.90;;;;;;4978160;28;20172;-67
2023/08/22 04:40:50;;;;;;;4.30;3.90;;;21.10;99.90;;;;;;4977273;28;20227;-66
2023/08/22 04:43:16;;;;;;;3.80;3.43;;;21.10;99.90;;;;;;4977321;28;20507;-67
2023/08/22 04:45:42;;;;;;;3.73;3.43;;;21.10;99.90;;;;;;4976713;28;20207;-67
2023/08/22 04:48:08;;;;;;;4.33;4.00;;;21.20;99.90;;;;;;4976025;28;20586;-67
2023/08/22 04:50:34;;;;;;;3.87;3.60;;;21.20;99.90;;;;;;4977055;28;20398;-67
2023/08/22 04:53:00;;;;;;;3.27;3.07;;;21.20;99.90;;;;;;4976496;28;20665;-65
2023/08/22 04:55:26;;;;;;;3.53;3.33;;;21.30;99.90;;;;;;4976706;28;20203;-66
2023/08/22 04:57:51;;;;;;;4.47;3.90;;;21.40;99.90;;;;;;4971586;28;20425;-66
2023/08/22 05:00:18;;;;;;;4.60;4.20;;;21.40;99.90;;;;;;4977073;28;20184;-66
2023/08/22 05:02:44;;;;;;;5.00;4.60;;;21.40;99.90;;;;;;4976575;28;20180;-65
2023/08/22 05:05:10;;;;;;;4.30;3.90;;;21.50;99.90;;;;;;4976533;28;20772;-67
2023/08/22 05:07:36;;;;;;;4.83;4.20;;;21.50;99.90;;;;;;4976414;28;20697;-67
2023/08/22 05:10:02;;;;;;;3.17;2.97;;;21.60;99.90;;;;;;4976933;28;20173;-67
2023/08/22 05:12:28;;;;;;;4.00;3.70;;;21.60;99.90;;;;;;4976442;28;20454;-67
2023/08/22 05:14:56;;;;;;;5.23;4.73;;;21.70;99.90;;;;;;4975646;28;20435;-66
2023/08/22 05:17:21;;;;;;;4.87;4.27;;;21.80;99.90;;;;;;4975194;28;20267;-68
2023/08/22 05:19:47;;;;;;;3.57;3.27;;;21.80;99.90;;;;;;4961659;28;20514;-66
2023/08/22 05:22:12;;;;;;;4.23;3.83;;;21.90;99.90;;;;;;4976177;28;20549;-67
2023/08/22 05:24:38;;;;;;;3.93;3.63;;;22.00;99.90;;;;;;4975966;28;20198;-67
2023/08/22 05:27:04;;;;;;;3.87;3.57;;;22.10;99.90;;;;;;4976201;28;20176;-67
2023/08/22 05:29:29;;;;;;;5.60;4.53;;;22.20;99.90;;;;;;4975844;28;20185;-67
2023/08/22 05:31:55;;;;;;;4.50;3.90;;;22.20;99.90;;;;;;4975890;28;20432;-66
2023/08/22 05:34:21;;;;;;;4.10;3.80;;;22.30;99.90;;;;;;4975346;28;20222;-67
2023/08/22 05:36:46;;;;;;;3.77;3.37;;;22.30;99.90;;;;;;4976271;28;20175;-68
2023/08/22 05:39:12;;;;;;;4.53;3.90;;;22.40;99.90;;;;;;4976226;28;20176;-66
2023/08/22 05:41:37;;;;;;;4.30;3.90;;;22.50;99.90;;;;;;4976128;28;20173;-68
2023/08/22 05:44:03;;;;;;;4.93;4.40;;;22.50;99.90;;;;;;4962129;28;20172;-66
2023/08/22 05:46:29;;;;;;;3.80;3.50;;;22.70;99.90;;;;;;4975989;28;20736;-67
2023/08/22 05:48:54;;;;;;;4.93;4.17;;;22.80;99.90;;;;;;4975371;28;20203;-66
2023/08/22 05:51:21;;;;;;;4.17;3.87;;;23.00;99.90;;;;;;4975665;28;20524;-67
2023/08/22 05:53:46;;;;;;;5.93;5.43;;;23.10;99.90;;;;;;4975129;28;20708;-65
2023/08/22 05:56:12;;;;;;;5.37;4.87;;;23.20;99.90;;;;;;4974673;28;20526;-67
2023/08/22 05:58:38;;;;;;;6.30;5.80;;;23.40;99.90;;;;;;4975939;28;20200;-68
2023/08/22 06:01:10;;;;;;;3.83;3.53;;;23.50;99.90;;;;;;4975923;28;20176;-66
2023/08/22 06:03:39;;;;;;;4.73;4.43;;;23.60;99.90;;;;;;4974776;28;20210;-65
2023/08/22 06:06:05;;;;;;;4.63;4.20;;;23.70;99.90;;;;;;4974991;28;20441;-63
2023/08/22 06:08:31;;;;;;;5.00;4.60;;;23.80;99.90;;;;;;4973179;28;20444;-65
2023/08/22 06:10:56;;;;;;;5.87;4.23;;;23.90;99.90;;;;;;4974384;28;20390;-64
2023/08/22 06:13:22;;;;;;;5.00;4.53;;;24.00;99.90;;;;;;4974580;28;20180;-65
2023/08/22 06:15:48;;;;;;;5.80;5.30;;;24.10;99.90;;;;;;4974599;28;20231;-66
2023/08/22 06:18:14;;;;;;;4.70;4.37;;;24.10;99.90;;;;;;4974982;28;20475;-63
2023/08/22 06:20:39;;;;;;;4.60;4.20;;;24.20;99.90;;;;;;4974663;28;20175;-65
2023/08/22 06:23:05;;;;;;;4.27;3.90;;;24.30;99.90;;;;;;4974848;28;20184;-63
2023/08/22 06:25:32;;;;;;;5.03;4.53;;;24.40;99.90;;;;;;4974834;28;20242;-63
2023/08/22 06:27:58;;;;;;;7.07;5.30;;;24.50;99.90;;;;;;4975453;28;20450;-65
2023/08/22 06:30:24;;;;;;;4.23;3.93;;;24.60;99.90;;;;;;4974759;28;20431;-66
2023/08/22 06:32:49;;;;;;;4.83;4.43;;;24.60;99.90;;;;;;4975189;28;20199;-65
2023/08/22 06:35:15;;;;;;;6.43;5.83;;;24.80;99.90;;;;;;4971840;28;20697;-65
2023/08/22 06:37:40;;;;;;;5.17;4.20;;;24.90;99.90;;;;;;4975005;28;20200;-65
2023/08/22 06:40:07;;;;;;;6.03;5.43;;;25.10;99.90;;;;;;4975160;28;20626;-65
2023/08/22 06:42:32;;;;;;;6.67;5.10;;;25.00;99.90;;;;;;4975240;28;20267;-67
2023/08/22 06:44:58;;;;;;;5.00;4.60;;;24.90;99.90;;;;;;4974205;28;20587;-64
2023/08/22 06:47:24;;;;;;;5.73;5.23;;;24.90;99.90;;;;;;4974977;28;20200;-64
2023/08/22 06:49:49;;;;;;;6.00;4.80;;;25.00;99.90;;;;;;4975120;28;20191;-64
2023/08/22 06:52:15;;;;;;;5.33;4.93;;;25.00;99.90;;;;;;4974968;28;20267;-65
2023/08/22 06:54:41;;;;;;;7.60;4.83;;;25.10;99.90;;;;;;4974499;28;20200;-64
2023/08/22 06:57:07;;;;;;;5.20;4.67;;;25.20;99.90;;;;;;4975068;28;20191;-64
2023/08/22 06:59:33;;;;;;;5.60;5.10;;;25.30;99.90;;;;;;4974252;28;20187;-64
2023/08/22 07:01:59;;;;;;;5.70;4.87;;;25.30;99.90;;;;;;4973775;28;20424;-64
2023/08/22 07:04:25;;;;;;;5.20;4.70;;;25.30;99.90;;;;;;4974420;28;20263;-64
2023/08/22 07:06:50;;;;;;;5.67;5.10;;;25.30;99.90;;;;;;4974543;28;20188;-65
2023/08/22 07:09:16;;;;;;;4.83;4.30;;;25.40;99.90;;;;;;4957541;28;20378;-64
2023/08/22 07:11:42;;;;;;;5.90;5.30;;;25.50;99.90;;;;;;4974904;28;20635;-63
2023/08/22 07:14:08;;;;;;;6.00;5.30;;;25.70;99.90;;;;;;4974228;28;20176;-64
2023/08/22 07:16:33;;;;;;;5.83;5.27;;;25.80;99.90;;;;;;4972658;28;20506;-64
2023/08/22 07:18:59;;;;;;;5.17;4.67;;;25.90;99.90;;;;;;4974391;28;20812;-66
2023/08/22 07:21:25;;;;;;;5.50;5.00;;;26.00;99.90;;;;;;4974724;28;20172;-65
2023/08/22 07:23:51;;;;;;;5.40;4.90;;;26.30;99.90;;;;;;4974350;28;20228;-65
2023/08/22 07:26:16;;;;;;;6.17;5.57;;;26.60;99.90;;;;;;4957266;28;20499;-65
2023/08/22 07:28:42;;;;;;;6.27;5.67;;;26.90;99.90;;;;;;4974535;28;20176;-65
2023/08/22 07:31:07;;;;;;;4.80;4.30;;;27.30;99.90;;;;;;4989160;28;20275;-65
2023/08/22 07:33:33;;;;;;;6.17;5.57;;;27.80;99.90;;;;;;4974340;28;20179;-65
2023/08/22 07:36:01;;;;;;;5.30;4.80;;;28.40;99.90;;;;;;4974044;28;20267;-66
2023/08/22 07:38:26;;;;;;;5.30;4.90;;;29.30;99.90;;;;;;4974337;28;20212;-65
2023/08/22 07:40:52;;;;;;;6.40;5.90;;;30.20;99.90;;;;;;4974439;28;20423;-66
2023/08/22 07:43:17;;;;;;;5.07;4.60;;;31.30;99.90;;;;;;4974508;28;20527;-65
2023/08/22 07:45:43;;;;;;;5.10;4.70;;;32.40;99.90;;;;;;4973919;28;20543;-66
2023/08/22 07:48:09;;;;;;;4.80;4.40;;;33.40;98.80;;;;;;4974184;28;20187;-66
2023/08/22 07:50:35;;;;;;;4.70;4.30;;;34.60;96.70;;;;;;4974368;28;20187;-66
2023/08/22 07:53:01;;;;;;;5.17;4.77;;;35.70;93.70;;;;;;4974475;28;20777;-66
2023/08/22 07:55:26;;;;;;;4.87;4.47;;;36.80;92.30;;;;;;4973827;28;20204;-66
2023/08/22 07:57:52;;;;;;;5.37;4.90;;;37.60;90.10;;;;;;4974277;28;20247;-67
2023/08/22 08:00:18;;;;;;;5.27;4.87;;;38.30;88.40;;;;;;4974244;28;20252;-66
2023/08/22 08:02:45;;;;;;;4.87;4.57;;;39.00;85.20;;;;;;4974222;28;20208;-66
2023/08/22 08:05:12;;;;;;;4.60;4.30;;;39.20;82.40;;;;;;4973504;28;20450;-64
2023/08/22 08:07:38;;;;;;;5.10;4.80;;;38.80;82.50;;;;;;4973848;28;20439;-64
2023/08/22 08:10:04;;;;;;;5.20;4.80;;;38.90;82.30;;;;;;4973759;28;20423;-64
2023/08/22 08:12:29;;;;;;;6.70;4.90;;;39.40;80.80;;;;;;4974841;28;20661;-64
2023/08/22 08:14:55;;;;;;;5.07;4.77;;;39.80;79.70;;;;;;4977451;28;20204;-63
2023/08/22 08:17:21;;;;;;;5.70;5.17;;;40.10;77.70;;;;;;4977758;28;20755;-65
2023/08/22 08:19:48;;;;;;;5.03;4.53;;;40.00;75.80;;;;;;4977900;28;20542;-63
2023/08/22 08:22:13;;;;;;;5.50;5.20;;;40.00;76.60;;;;;;4977866;28;20259;-65
2023/08/22 08:24:39;;;;;;;4.33;4.07;;;40.00;76.10;;;;;;4976987;28;20910;-64
2023/08/22 08:27:05;;;;;;;4.80;4.40;;;40.10;74.80;;;;;;4977704;28;20179;-64
2023/08/22 08:29:31;;;;;;;5.63;5.23;;;40.50;74.20;;;;;;4977782;28;20188;-64
2023/08/22 08:31:58;;;;;;;3.97;3.77;;;40.80;73.80;;;;;;4977501;28;20414;-64
2023/08/22 08:34:26;;;;;;;4.47;4.27;;;40.60;72.20;;;;;;4977078;28;20751;-64
2023/08/22 08:36:52;;;;;;;4.73;4.43;;;40.50;72.10;;;;;;4977436;28;20419;-64
2023/08/22 08:39:18;;;;;;;4.77;4.40;;;40.70;72.50;;;;;;4977179;28;20790;-63
2023/08/22 08:42:14;;;;;;;5.10;4.67;;;41.00;72.10;;;;;;4977278;28;20191;-64
2023/08/22 08:44:40;;;;;;;3.80;3.60;;;41.20;71.40;;;;;;4977184;28;20199;-64
2023/08/22 08:47:07;;;;;;;5.10;4.80;;;41.60;72.10;;;;;;4977306;28;20502;-64
2023/08/22 08:49:34;;;;;;;4.50;4.30;;;41.60;68.90;;;;;;4977110;28;20427;-64
2023/08/22 08:52:05;;;;;;;4.17;3.90;;;41.50;68.80;;;;;;4977172;28;20439;-64
2023/08/22 08:54:32;;;;;;;4.33;4.13;;;41.50;69.80;;;;;;4975487;28;20453;-64
2023/08/22 08:56:59;;;;;;;3.70;3.50;;;41.60;68.00;;;;;;4977086;28;20418;-63
2023/08/22 08:59:25;;;;;;;4.07;3.77;;;41.70;68.80;;;;;;4977273;28;20420;-64
2023/08/22 09:01:53;;;;;;;3.40;3.20;;;41.60;68.30;;;;;;4976769;28;20495;-64
2023/08/22 09:04:20;;;;;;;3.83;3.63;;;41.60;66.80;;;;;;4976678;28;20407;-63
2023/08/22 09:06:47;;;;;;;3.27;3.10;;;41.70;66.90;;;;;;4977060;28;20422;-64
2023/08/22 09:09:37;;;;;;;3.83;3.63;;;42.00;65.70;;;;;;4995574;28;20459;-65
2023/08/22 09:12:08;;;;;;;3.63;3.43;;;42.30;65.00;;;;;;4977459;28;20502;-66
2023/08/22 09:14:39;;;;;;;3.83;3.63;;;42.60;65.50;;;;;;4980413;28;20862;-64
2023/08/22 09:17:05;;;;;;;3.80;3.60;;;42.80;64.50;;;;;;4976478;28;20419;-64
2023/08/22 09:19:32;;;;;;;4.00;3.80;;;42.90;64.80;;;;;;4966612;28;20423;-64
2023/08/22 09:21:59;;;;;;;4.77;3.60;;;43.10;63.70;;;;;;4957477;29;20304;-64
2023/08/22 09:24:26;;;;;;;3.50;3.40;;;43.50;60.30;;;;;;4955948;28;20404;-63
2023/08/22 09:26:53;;;;;;;4.65;4.38;;;43.70;61.20;;;;;;4960279;28;20501;-64
2023/08/22 09:29:26;;;;;;;3.80;3.70;;;43.90;60.10;;;;;;4976192;28;20178;-64
2023/08/22 09:32:01;;;;;;;4.22;4.03;;;43.80;60.20;;;;;;4976338;28;20637;-65
2023/08/22 09:34:27;;;;;;;3.90;3.70;;;43.80;59.70;;;;;;4975918;28;20622;-65
2023/08/22 09:36:54;;;;;;;4.68;4.45;;;43.70;58.90;;;;;;4976429;28;20180;-64
2023/08/22 09:39:21;;;;;;;3.75;3.58;;;43.60;59.30;;;;;;4975183;28;20204;-65
2023/08/22 09:41:57;;;;;;;3.75;3.53;;;43.70;59.40;;;;;;4975746;28;20202;-65
2023/08/22 09:44:28;;;;;;;4.18;3.97;;;43.80;58.90;;;;;;4975760;28;20176;-65
2023/08/22 09:46:55;;;;;;;4.18;3.97;;;43.70;59.30;;;;;;4976239;28;20521;-65
2023/08/22 09:49:22;;;;;;;4.03;3.72;;;43.80;58.60;;;;;;4976292;28;20223;-65
2023/08/22 09:51:50;;;;;;;4.05;3.85;;;43.90;59.10;;;;;;4976255;28;20164;-64
2023/08/22 09:54:16;;;;;;;3.60;3.47;;;44.00;58.90;;;;;;4975375;28;20270;-65
2023/08/22 09:56:43;;;;;;;4.32;4.13;;;44.20;58.60;;;;;;4976067;28;20570;-66
2023/08/22 09:59:12;;;;;;;4.35;4.15;;;44.30;57.50;;;;;;4975910;28;20266;-66
2023/08/22 10:01:38;;;;;;;4.00;3.80;;;44.40;58.00;;;;;;4975996;28;20198;-65
2023/08/22 10:04:07;;;;;;;4.22;4.13;;;44.40;58.40;;;;;;4975632;28;20176;-64
2023/08/22 10:06:34;;;;;;;4.20;3.95;;;44.70;58.00;;;;;;4975544;28;20192;-63
2023/08/22 10:09:07;;;;;;;3.97;3.85;;;44.80;57.70;;;;;;4975383;28;20253;-66
2023/08/22 10:11:50;;;;;;;4.05;3.85;;;44.80;56.80;;;;;;4975718;28;20180;-63
2023/08/22 10:14:28;;;;;;;4.60;4.40;;;44.50;56.90;;;;;;4975170;28;20646;-64
2023/08/22 10:16:55;;;;;;;4.13;3.92;;;44.00;57.10;;;;;;4975539;28;20242;-63
2023/08/22 10:19:23;;;;;;;4.27;4.07;;;43.50;57.20;;;;;;4975672;28;20172;-66
2023/08/22 10:21:53;;;;;;;3.83;3.53;;;43.00;58.10;;;;;;4975344;28;20250;-65
2023/08/22 10:24:29;;;;;;;3.63;3.43;;;43.00;58.40;;;;;;4975208;28;20404;-65
2023/08/22 10:27:05;;;;;;;3.90;3.57;;;42.50;59.00;;;;;;4975576;28;20423;-62
2023/08/22 10:29:45;;;;;;;3.40;3.27;;;42.10;59.60;;;;;;4975459;28;20478;-65
2023/08/22 10:32:10;;;;;;;3.53;3.33;;;41.50;60.10;;;;;;4975506;28;20419;-65
2023/08/22 10:34:39;;;;;;;3.70;3.50;;;41.30;60.70;;;;;;4974991;28;20423;-75
2023/08/22 10:37:25;;;;;;;3.40;3.20;;;41.30;60.70;;;;;;4975059;28;20206;-66
2023/08/22 10:39:52;;;;;;;3.20;3.00;;;41.40;61.00;;;;;;4960690;28;20417;-68
2023/08/22 10:42:25;;;;;;;3.77;3.50;;;41.50;60.60;;;;;;4954855;29;20408;-66
2023/08/22 10:44:59;;;;;;;3.60;3.40;;;41.50;60.30;;;;;;4955550;28;20436;-62
2023/08/22 10:47:27;;;;;;;3.80;3.60;;;41.30;60.60;;;;;;4955716;29;20491;-60
2023/08/22 10:50:11;;;;;;;3.00;2.80;;;41.10;59.80;;;;;;4957887;28;20404;-60
2023/08/22 10:52:38;;;;;;;3.10;2.90;;;41.10;61.80;;;;;;4975068;28;20435;-60
2023/08/22 10:55:08;;;;;;;3.57;3.37;;;41.10;60.50;;;;;;4975725;28;20431;-61
2023/08/22 10:57:37;;;;;;;3.53;3.33;;;40.90;62.30;;;;;;4977896;28;20427;-61
2023/08/22 11:00:27;;;;;;;3.70;3.50;;;40.80;61.10;;;;;;4976495;28;20459;-61
2023/08/22 11:02:57;;;;;;;3.50;3.30;;;40.70;60.00;;;;;;4974449;28;20428;-61
2023/08/22 11:05:24;;;;;;;3.00;2.80;;;40.50;61.30;;;;;;4958153;28;20972;-61
2023/08/22 11:07:51;;;;;;;3.50;3.30;;;40.40;62.10;;;;;;4974635;28;20475;-61
2023/08/22 11:10:22;;;;;;;3.87;3.67;;;40.40;63.40;;;;;;4974383;28;20416;-60
2023/08/22 11:12:49;;;;;;;2.83;2.63;;;40.00;62.30;;;;;;4974719;28;20758;-60
2023/08/22 11:15:16;;;;;;;2.87;2.67;;;39.40;64.60;;;;;;4974129;28;20474;-60
2023/08/22 11:17:43;;;;;;;3.03;2.80;;;38.60;66.50;;;;;;4974578;28;20456;-61
2023/08/22 11:20:14;;;;;;;3.53;3.23;;;37.80;66.40;;;;;;4974414;28;20412;-60
2023/08/22 11:22:42;;;;;;;2.63;2.43;;;36.90;67.60;;;;;;4973365;28;20427;-60
2023/08/22 11:25:08;;;;;;;3.07;2.77;;;36.40;70.10;;;;;;4974077;28;20409;-61
2023/08/22 11:27:38;;;;;;;3.70;2.97;;;36.00;70.80;;;;;;4974397;28;20430;-60
2023/08/22 11:30:04;;;;;;;3.07;2.77;;;35.40;70.90;;;;;;4974312;28;20398;-62
2023/08/22 11:32:32;;;;;;;3.17;2.97;;;35.10;72.50;;;;;;4974825;28;20424;-62
2023/08/22 11:35:00;;;;;;;3.40;3.10;;;34.70;74.40;;;;;;4974553;28;20501;-60
2023/08/22 11:37:27;;;;;;;2.97;2.77;;;34.40;73.90;;;;;;4974668;28;20393;-61
2023/08/22 11:39:54;;;;;;;3.60;3.30;;;34.10;74.60;;;;;;4974114;28;20417;-61
2023/08/22 11:42:24;;;;;;;3.43;3.17;;;33.90;75.30;;;;;;4974611;28;20374;-61
2023/08/22 11:44:53;;;;;;;3.13;2.83;;;33.70;77.50;;;;;;4974039;28;20427;-60
2023/08/22 11:47:19;;;;;;;2.10;2.00;;;33.50;75.00;;;;;;4975310;28;20438;-63
2023/08/22 11:49:48;;;;;;;2.20;2.10;;;33.40;75.60;;;;;;4978306;28;20374;-61
2023/08/22 11:52:14;;;;;;;2.50;2.40;;;33.30;75.50;;;;;;4978447;28;20539;-60
2023/08/22 11:54:45;;;;;;;2.40;2.20;;;33.20;77.10;;;;;;4977681;28;20420;-61
2023/08/22 11:57:12;;;;;;;2.23;2.03;;;33.20;77.90;;;;;;4978314;28;20172;-61
2023/08/22 11:59:42;;;;;;;3.17;2.90;;;33.30;75.90;;;;;;4977850;28;20386;-61
2023/08/22 12:02:09;;;;;;;2.23;2.10;;;33.40;78.40;;;;;;4978048;28;20393;-61
2023/08/22 12:04:42;;;;;;;2.63;2.50;;;33.70;77.10;;;;;;4977401;28;20406;-61
2023/08/22 12:07:08;;;;;;;2.80;2.60;;;33.90;76.10;;;;;;4977780;28;20431;-63
2023/08/22 12:09:34;;;;;;;2.77;2.50;;;34.00;75.40;;;;;;4960703;28;20397;-60
2023/08/22 12:12:10;;;;;;;2.83;2.63;;;34.00;75.60;;;;;;4958498;29;20252;-60
2023/08/22 12:14:36;;;;;;;2.70;2.50;;;33.90;76.70;;;;;;4959541;28;20184;-64
2023/08/22 12:17:01;;;;;;;2.77;2.47;;;33.80;75.10;;;;;;4977515;28;20398;-65
2023/08/22 12:19:27;;;;;;;2.63;2.43;;;33.90;76.20;;;;;;4977772;28;20177;-65
2023/08/22 12:21:52;;;;;;;2.80;2.60;;;33.80;76.30;;;;;;4977426;28;20169;-65
2023/08/22 12:24:18;;;;;;;3.03;2.83;;;33.80;75.50;;;;;;4975948;28;20555;-65
2023/08/22 12:26:44;;;;;;;4.00;3.60;;;33.60;76.80;;;;;;4992245;28;20176;-64
2023/08/22 12:29:09;;;;;;;2.70;2.50;;;33.60;78.40;;;;;;4977018;28;20678;-65
2023/08/22 12:31:35;;;;;;;3.43;3.23;;;33.60;77.50;;;;;;4977096;28;20208;-64
2023/08/22 12:34:00;;;;;;;2.40;2.30;;;33.60;76.80;;;;;;4976857;28;20195;-64
2023/08/22 12:36:26;;;;;;;2.70;2.50;;;33.60;78.60;;;;;;4975442;28;20199;-65
2023/08/22 12:38:52;;;;;;;2.30;2.20;;;33.70;78.40;;;;;;4978138;28;20172;-65
2023/08/22 12:41:18;;;;;;;2.80;2.60;;;33.70;76.60;;;;;;4981476;28;20204;-64
2023/08/22 12:43:43;;;;;;;2.70;2.50;;;33.70;76.90;;;;;;4980548;28;20181;-65
2023/08/22 12:46:09;;;;;;;2.30;2.20;;;33.60;77.60;;;;;;4977435;28;20616;-65
2023/08/22 12:48:36;;;;;;;2.67;2.47;;;33.70;79.00;;;;;;4977619;28;20204;-65
2023/08/22 12:51:02;;;;;;;3.33;3.03;;;33.70;78.40;;;;;;4976838;28;20481;-65
2023/08/22 12:53:28;;;;;;;2.57;2.37;;;33.60;77.20;;;;;;4976960;28;20826;-65
2023/08/22 12:55:53;;;;;;;2.80;2.60;;;33.50;78.30;;;;;;4976768;28;20197;-64
2023/08/22 12:58:19;;;;;;;3.50;2.43;;;33.30;78.80;;;;;;4977428;28;20255;-64
2023/08/22 13:00:44;;;;;;;3.87;3.20;;;33.30;79.40;;;;;;4978830;28;20176;-64
2023/08/22 13:03:10;;;;;;;5.10;2.53;;;33.20;79.40;;;;;;4980465;28;20227;-64
2023/08/22 13:05:37;;;;;;;2.93;2.73;;;33.20;79.10;;;;;;4979944;28;20212;-65
2023/08/22 13:08:04;;;;;;;3.13;2.87;;;33.20;78.10;;;;;;4978214;28;20620;-64
2023/08/22 13:10:29;;;;;;;2.80;2.50;;;33.30;79.90;;;;;;4982459;28;20411;-64
2023/08/22 13:12:55;;;;;;;2.73;2.53;;;33.30;78.80;;;;;;4978379;28;20673;-64
2023/08/22 13:15:21;;;;;;;2.73;2.50;;;33.30;79.20;;;;;;4979082;28;20192;-65
2023/08/22 13:17:47;;;;;;;2.60;2.30;;;33.30;78.60;;;;;;4979590;28;20235;-65
2023/08/22 13:20:13;;;;;;;2.90;2.70;;;33.30;80.00;;;;;;4980516;28;20486;-65
2023/08/22 13:22:38;;;;;;;3.77;3.57;;;33.30;80.20;;;;;;4976648;28;20180;-65
2023/08/22 13:25:04;;;;;;;2.90;2.60;;;33.60;80.90;;;;;;4975977;28;20214;-65
2023/08/22 13:27:30;;;;;;;3.17;2.87;;;33.80;78.90;;;;;;4976580;28;20207;-65
2023/08/22 13:29:56;;;;;;;3.27;2.97;;;33.90;78.30;;;;;;4976191;28;20402;-65
2023/08/22 13:32:21;;;;;;;2.93;2.73;;;33.90;79.50;;;;;;4976313;28;20200;-65
2023/08/22 13:34:47;;;;;;;2.60;2.40;;;34.10;79.80;;;;;;4976002;28;20265;-65
2023/08/22 13:37:13;;;;;;;3.13;2.93;;;34.20;78.30;;;;;;4976647;28;20184;-63
2023/08/22 13:39:38;;;;;;;3.60;2.83;;;34.20;77.90;;;;;;4976140;28;20187;-64
2023/08/22 13:42:04;;;;;;;3.40;3.10;;;34.20;77.90;;;;;;4976080;28;20635;-64
2023/08/22 13:44:30;;;;;;;3.20;3.00;;;34.20;77.60;;;;;;4976427;28;20172;-64
2023/08/22 13:46:55;;;;;;;2.60;2.40;;;34.10;78.30;;;;;;4978388;28;20191;-64
2023/08/22 13:49:21;;;;;;;2.70;2.50;;;34.10;78.00;;;;;;4976104;28;20176;-64
2023/08/22 13:51:46;;;;;;;2.57;2.37;;;33.90;78.40;;;;;;4976169;28;20176;-64
2023/08/22 13:54:13;;;;;;;4.20;3.00;;;33.80;80.40;;;;;;4976003;28;20617;-65
2023/08/22 13:56:38;;;;;;;2.73;2.50;;;33.50;79.20;;;;;;4976048;28;20184;-65
2023/08/22 13:59:04;;;;;;;2.80;2.60;;;33.50;80.80;;;;;;4976106;28;20797;-65
2023/08/22 14:01:29;;;;;;;3.37;3.17;;;33.50;80.80;;;;;;4976235;28;20627;-66
2023/08/22 14:03:55;;;;;;;2.80;2.60;;;33.50;80.60;;;;;;4975502;28;20187;-65
2023/08/22 14:06:21;;;;;;;3.77;3.47;;;33.50;81.70;;;;;;4974608;28;20250;-63
2023/08/22 14:08:47;;;;;;;3.20;3.00;;;33.50;82.50;;;;;;4975176;28;20207;-64
2023/08/22 14:11:14;;;;;;;3.50;2.87;;;33.50;82.10;;;;;;4975166;28;20203;-65
2023/08/22 14:13:39;;;;;;;2.73;2.53;;;33.50;81.90;;;;;;4975329;28;20400;-64
2023/08/22 14:16:05;;;;;;;2.77;2.57;;;33.30;82.20;;;;;;4975556;28;20494;-64
2023/08/22 14:18:30;;;;;;;2.70;2.50;;;33.20;82.20;;;;;;4975794;28;20180;-64
2023/08/22 14:20:56;;;;;;;2.80;2.60;;;33.10;83.30;;;;;;4975662;28;20674;-63
2023/08/22 14:23:22;;;;;;;2.53;2.33;;;33.10;82.90;;;;;;4975187;28;20235;-64
2023/08/22 14:25:47;;;;;;;3.37;2.43;;;33.10;82.80;;;;;;4989907;28;20577;-64
2023/08/22 14:28:13;;;;;;;2.67;2.47;;;33.00;82.70;;;;;;4975745;28;20203;-64
2023/08/22 14:30:38;;;;;;;3.93;3.00;;;33.00;84.20;;;;;;4975413;28;20175;-64
2023/08/22 14:33:06;;;;;;;2.60;2.43;;;33.00;82.60;;;;;;4975352;28;20255;-64
2023/08/22 14:35:32;;;;;;;3.33;3.10;;;32.80;82.70;;;;;;4974555;28;20228;-64
2023/08/22 14:37:57;;;;;;;2.70;2.50;;;32.80;82.10;;;;;;4975041;28;20436;-63
2023/08/22 14:40:23;;;;;;;2.70;2.50;;;32.70;83.10;;;;;;4974969;28;20638;-64
2023/08/22 14:42:48;;;;;;;2.47;2.27;;;32.70;82.80;;;;;;4975110;28;20231;-65
2023/08/22 14:45:14;;;;;;;2.90;2.70;;;32.80;84.00;;;;;;4974752;28;20246;-64
2023/08/22 14:47:40;;;;;;;2.37;2.17;;;32.80;82.80;;;;;;4974986;28;20235;-65
2023/08/22 14:50:06;;;;;;;3.13;2.87;;;32.70;82.50;;;;;;4975072;28;20645;-64
2023/08/22 14:52:31;;;;;;;2.50;2.30;;;32.70;83.30;;;;;;4974826;28;20172;-65
2023/08/22 14:54:58;;;;;;;3.70;3.27;;;32.70;83.40;;;;;;4974360;28;20262;-64
2023/08/22 14:57:23;;;;;;;3.47;3.17;;;32.70;83.60;;;;;;4975021;28;20187;-65
2023/08/22 14:59:49;;;;;;;3.77;2.63;;;32.60;83.60;;;;;;4974864;28;20420;-64
2023/08/22 15:02:16;;;;;;;2.97;2.77;;;32.60;83.80;;;;;;4975210;28;20187;-63
2023/08/22 15:04:41;;;;;;;2.40;2.20;;;32.50;84.10;;;;;;4974457;28;20230;-65
2023/08/22 15:07:07;;;;;;;3.27;3.07;;;32.40;84.50;;;;;;4974281;28;20414;-65
2023/08/22 15:09:32;;;;;;;3.20;3.00;;;32.30;85.40;;;;;;4974519;28;20247;-65
2023/08/22 15:11:58;;;;;;;3.80;3.20;;;32.30;85.30;;;;;;4974701;28;20231;-65
2023/08/22 15:14:23;;;;;;;3.87;3.07;;;32.20;85.60;;;;;;4974250;28;20168;-64
2023/08/22 15:16:49;;;;;;;3.00;2.80;;;32.10;85.60;;;;;;4974373;28;20638;-64
2023/08/22 15:19:15;;;;;;;4.20;3.90;;;32.10;87.70;;;;;;4974625;28;20172;-64
2023/08/22 15:21:40;;;;;;;3.30;3.00;;;32.10;87.60;;;;;;4973178;28;20654;-64
2023/08/22 15:24:06;;;;;;;2.70;2.50;;;32.10;86.90;;;;;;4974261;28;20184;-65
2023/08/22 15:26:32;;;;;;;3.40;3.10;;;32.10;86.70;;;;;;4974496;28;20554;-64
2023/08/22 15:28:57;;;;;;;3.80;2.70;;;32.00;87.60;;;;;;4974378;28;20235;-65
2023/08/22 15:31:23;;;;;;;3.63;3.33;;;31.90;87.10;;;;;;4974434;28;20192;-65
2023/08/22 15:33:48;;;;;;;2.93;2.73;;;31.90;88.20;;;;;;4974241;28;20566;-65
2023/08/22 15:36:14;;;;;;;2.50;2.30;;;31.80;87.00;;;;;;4974053;28;20223;-65
2023/08/22 15:38:41;;;;;;;2.67;2.47;;;31.80;87.90;;;;;;4974333;28;20210;-66
2023/08/22 15:41:09;;;;;;;2.50;2.30;;;31.70;88.70;;;;;;4974180;28;20180;-64
2023/08/22 15:43:35;;;;;;;3.40;3.10;;;31.70;88.50;;;;;;4973736;28;20423;-65
2023/08/22 15:46:01;;;;;;;2.47;2.27;;;31.70;88.70;;;;;;4974438;28;20771;-64
2023/08/22 15:48:26;;;;;;;3.43;3.20;;;31.70;88.30;;;;;;4974393;28;20291;-63
2023/08/22 15:50:57;;;;;;;2.93;2.73;;;31.70;88.30;;;;;;4974175;28;20177;-65
2023/08/22 15:53:23;;;;;;;3.70;3.40;;;31.70;88.80;;;;;;4974441;28;20183;-64
2023/08/22 15:55:49;;;;;;;2.93;2.67;;;31.60;88.10;;;;;;4973567;28;20510;-68
2023/08/22 15:58:16;;;;;;;3.20;2.90;;;31.60;88.40;;;;;;4974030;28;20458;-68
2023/08/22 16:00:43;;;;;;;2.47;2.37;;;31.50;88.70;;;;;;4974258;28;20424;-67
2023/08/22 16:03:08;;;;;;;3.57;2.40;;;31.50;89.40;;;;;;4974210;28;20857;-67
2023/08/22 16:05:35;;;;;;;3.53;3.23;;;31.40;88.90;;;;;;4973339;28;20513;-72
2023/08/22 16:08:01;;;;;;;2.57;2.37;;;31.40;89.00;;;;;;4973969;28;20269;-66
2023/08/22 16:10:27;;;;;;;2.70;2.50;;;31.40;89.50;;;;;;4974095;28;20374;-68
2023/08/22 16:12:53;;;;;;;4.43;3.47;;;31.40;89.00;;;;;;4973747;28;20179;-67
2023/08/22 16:15:18;;;;;;;2.77;2.57;;;31.30;88.80;;;;;;4973445;28;20436;-66
2023/08/22 16:17:44;;;;;;;4.33;3.17;;;31.30;89.70;;;;;;4973972;28;20176;-66
2023/08/22 16:20:10;;;;;;;2.63;2.43;;;31.30;89.30;;;;;;4972450;28;20185;-66
2023/08/22 16:22:35;;;;;;;2.70;2.50;;;31.20;89.50;;;;;;4959985;28;20268;-64
2023/08/22 16:25:01;;;;;;;3.23;2.93;;;31.20;90.00;;;;;;4955077;28;20498;-65
2023/08/22 16:27:27;;;;;;;2.37;2.17;;;31.10;90.40;;;;;;4970859;28;20258;-64
2023/08/22 16:29:53;;;;;;;2.57;2.37;;;31.10;89.30;;;;;;4971184;28;20520;-65
2023/08/22 16:32:18;;;;;;;2.90;2.57;;;31.10;89.70;;;;;;4956501;28;20177;-65
2023/08/22 16:34:44;;;;;;;2.53;2.00;;;31.10;89.80;;;;;;4976031;28;20995;-66
2023/08/22 16:37:10;;;;;;;2.83;2.63;;;31.00;90.20;;;;;;4977626;28;20255;-65
2023/08/22 16:39:35;;;;;;;2.50;2.30;;;30.90;90.20;;;;;;4977440;28;20643;-65
2023/08/22 16:42:01;;;;;;;2.40;2.20;;;30.90;90.20;;;;;;4977023;28;20169;-64
2023/08/22 16:44:26;;;;;;;2.90;2.70;;;30.70;89.90;;;;;;4976980;28;20168;-63
2023/08/22 16:46:52;;;;;;;2.47;2.30;;;30.70;90.10;;;;;;4975731;28;20183;-64
2023/08/22 16:49:18;;;;;;;2.50;2.30;;;30.60;90.40;;;;;;4977372;28;20247;-63
2023/08/22 16:51:43;;;;;;;2.80;2.60;;;30.50;90.40;;;;;;4976979;28;20180;-63
2023/08/22 16:54:10;;;;;;;2.63;2.43;;;30.40;90.60;;;;;;4976601;28;20267;-63